createdAt,value
2017-09-15T00:00:48.766Z,89.73
2017-09-15T00:03:16.163Z,89.73
2017-09-15T00:05:43.556Z,89.67
2017-09-15T00:08:10.954Z,89.46
2017-09-15T00:10:38.350Z,89.47
2017-09-15T00:13:05.779Z,89.48
2017-09-15T00:15:33.176Z,89.39
2017-09-15T00:18:00.574Z,89.75
2017-09-15T00:20:27.974Z,89.70
2017-09-15T00:22:55.378Z,90.04
2017-09-15T00:25:22.778Z,90.19
2017-09-15T00:27:50.170Z,89.87
2017-09-15T00:30:17.579Z,89.83
2017-09-15T00:32:44.991Z,89.56
2017-09-15T00:35:12.438Z,89.43
2017-09-15T00:37:39.838Z,89.28
2017-09-15T00:40:07.231Z,88.71
2017-09-15T00:42:34.639Z,88.53
2017-09-15T00:45:02.035Z,88.25
2017-09-15T00:47:29.431Z,88.12
2017-09-15T00:49:56.835Z,88.45
2017-09-15T00:52:24.231Z,88.50
2017-09-15T00:54:51.630Z,88.73
2017-09-15T00:57:19.026Z,88.72
2017-09-15T01:02:37.275Z,88.81
2017-09-15T01:05:04.671Z,88.81
2017-09-15T01:07:32.073Z,88.45
2017-09-15T01:09:59.471Z,88.80
2017-09-15T01:12:26.886Z,88.66
2017-09-15T01:14:54.283Z,89.04
2017-09-15T01:17:21.682Z,89.19
2017-09-15T01:19:49.091Z,89.22
2017-09-15T01:22:16.494Z,89.19
2017-09-15T01:24:43.899Z,89.34
2017-09-15T01:27:11.290Z,89.54
2017-09-15T01:29:38.695Z,89.21
2017-09-15T01:32:06.091Z,89.21
2017-09-15T01:34:33.594Z,89.12
2017-09-15T01:37:00.995Z,89.39
2017-09-15T01:39:28.400Z,89.57
2017-09-15T01:41:55.807Z,89.59
2017-09-15T01:44:23.207Z,89.76
2017-09-15T01:46:50.606Z,89.99
2017-09-15T01:49:18.014Z,89.82
2017-09-15T01:51:45.714Z,89.96
2017-09-15T01:54:13.135Z,90.09
2017-09-15T01:56:40.515Z,90.22
2017-09-15T01:59:07.915Z,90.15
2017-09-15T02:01:35.311Z,90.21
2017-09-15T02:04:02.734Z,90.26
2017-09-15T02:06:30.123Z,90.19
2017-09-15T02:08:57.666Z,90.32
2017-09-15T02:11:25.077Z,90.37
2017-09-15T02:13:52.466Z,90.38
2017-09-15T02:16:19.871Z,90.31
2017-09-15T02:18:47.286Z,90.53
2017-09-15T02:21:14.688Z,90.51
2017-09-15T02:23:42.082Z,90.76
2017-09-15T02:26:09.536Z,90.85
2017-09-15T02:28:36.946Z,90.89
2017-09-15T02:31:04.351Z,90.97
2017-09-15T02:33:31.759Z,91.15
2017-09-15T02:35:59.151Z,91.44
2017-09-15T02:38:26.565Z,91.59
2017-09-15T02:40:53.964Z,91.63
2017-09-15T02:43:21.406Z,91.72
2017-09-15T02:45:48.799Z,91.76
2017-09-15T02:48:16.190Z,91.89
2017-09-15T02:50:43.591Z,92.08
2017-09-15T02:53:10.992Z,92.10
2017-09-15T02:55:38.395Z,92.18
2017-09-15T02:58:05.794Z,92.12
2017-09-15T03:00:33.228Z,91.99
2017-09-15T03:03:00.627Z,91.83
2017-09-15T03:05:28.027Z,91.85
2017-09-15T03:07:55.434Z,91.84
2017-09-15T03:10:22.834Z,91.92
2017-09-15T03:12:50.259Z,92.01
2017-09-15T03:15:17.659Z,92.04
2017-09-15T03:17:45.214Z,92.00
2017-09-15T03:20:12.615Z,91.87
2017-09-15T03:22:40.016Z,91.88
2017-09-15T03:25:07.423Z,91.98
2017-09-15T03:27:34.815Z,91.84
2017-09-15T03:30:02.223Z,91.72
2017-09-15T03:32:29.619Z,91.46
2017-09-15T03:34:57.034Z,91.04
2017-09-15T03:37:24.430Z,91.25
2017-09-15T03:39:51.836Z,91.13
2017-09-15T03:42:19.235Z,90.74
2017-09-15T03:44:46.631Z,90.81
2017-09-15T03:47:14.039Z,90.92
2017-09-15T03:49:41.439Z,91.10
2017-09-15T03:52:08.992Z,90.84
2017-09-15T03:54:36.403Z,90.99
2017-09-15T03:57:03.827Z,91.05
2017-09-15T03:59:31.256Z,91.27
2017-09-15T04:01:58.661Z,91.29
2017-09-15T04:04:26.067Z,91.14
2017-09-15T04:06:53.454Z,91.15
2017-09-15T04:09:20.902Z,91.10
2017-09-15T04:11:48.316Z,91.05
2017-09-15T04:14:15.716Z,90.86
2017-09-15T04:16:43.114Z,90.92
2017-09-15T04:19:10.530Z,90.60
2017-09-15T04:21:37.930Z,90.26
2017-09-15T04:24:05.328Z,90.42
2017-09-15T04:26:32.738Z,90.62
2017-09-15T04:29:00.156Z,90.68
2017-09-15T04:31:27.559Z,90.57
2017-09-15T04:33:54.954Z,90.48
2017-09-15T04:36:22.370Z,90.23
2017-09-15T04:38:49.778Z,90.35
2017-09-15T04:41:17.179Z,89.98
2017-09-15T04:43:44.843Z,90.12
2017-09-15T04:46:12.230Z,90.11
2017-09-15T04:48:39.622Z,90.17
2017-09-15T04:51:07.187Z,90.38
2017-09-15T04:53:34.610Z,89.93
2017-09-15T04:56:02.000Z,89.46
2017-09-15T04:58:29.407Z,88.89
2017-09-15T05:01:01.673Z,89.13
2017-09-15T05:03:29.099Z,89.58
2017-09-15T05:05:56.493Z,89.82
2017-09-15T05:08:23.900Z,89.92
2017-09-15T05:10:51.286Z,90.09
2017-09-15T05:13:18.706Z,89.66
2017-09-15T05:15:46.094Z,89.80
2017-09-15T05:18:13.492Z,90.03
2017-09-15T05:20:40.887Z,90.17
2017-09-15T05:23:08.275Z,90.15
2017-09-15T05:25:35.682Z,89.98
2017-09-15T05:28:03.063Z,89.98
2017-09-15T05:30:30.963Z,90.13
2017-09-15T05:32:58.354Z,90.28
2017-09-15T05:35:25.751Z,90.25
2017-09-15T05:37:53.162Z,89.84
2017-09-15T05:40:20.555Z,89.79
2017-09-15T05:42:47.959Z,89.01
2017-09-15T05:45:15.346Z,89.23
2017-09-15T05:47:42.773Z,89.11
2017-09-15T05:50:10.147Z,89.22
2017-09-15T05:52:37.559Z,89.52
2017-09-15T05:55:04.962Z,89.13
2017-09-15T05:57:32.359Z,89.44
2017-09-15T05:59:59.763Z,89.14
2017-09-15T06:02:27.155Z,88.84
2017-09-15T06:04:54.562Z,89.15
2017-09-15T06:07:21.951Z,89.28
2017-09-15T06:09:49.347Z,89.28
2017-09-15T06:12:16.750Z,89.04
2017-09-15T06:14:44.143Z,89.24
2017-09-15T06:17:11.543Z,89.28
2017-09-15T06:19:38.938Z,88.90
2017-09-15T06:22:06.339Z,88.87
2017-09-15T06:24:33.726Z,88.50
2017-09-15T06:27:01.116Z,88.64
2017-09-15T06:29:28.515Z,88.56
2017-09-15T06:31:55.899Z,88.67
2017-09-15T06:34:23.632Z,87.57
2017-09-15T06:36:51.014Z,87.71
2017-09-15T06:39:18.406Z,87.83
2017-09-15T06:41:45.810Z,87.20
2017-09-15T06:44:13.196Z,86.89
2017-09-15T06:46:40.594Z,86.96
2017-09-15T06:49:07.988Z,87.43
2017-09-15T06:51:35.382Z,87.36
2017-09-15T06:54:02.780Z,86.70
2017-09-15T06:56:30.172Z,87.16
2017-09-15T06:58:57.559Z,87.50
2017-09-15T07:01:24.958Z,87.78
2017-09-15T07:03:52.499Z,87.76
2017-09-15T07:06:19.886Z,85.22
2017-09-15T07:08:47.284Z,85.71
2017-09-15T07:11:14.679Z,86.69
2017-09-15T07:13:42.072Z,85.07
2017-09-15T07:16:09.484Z,85.66
2017-09-15T07:18:36.884Z,86.24
2017-09-15T07:21:04.271Z,86.37
2017-09-15T07:23:31.671Z,86.16
2017-09-15T07:25:59.079Z,85.45
2017-09-15T07:28:26.486Z,85.59
2017-09-15T07:30:53.894Z,85.33
2017-09-15T07:33:21.283Z,84.63
2017-09-15T07:35:48.682Z,84.29
2017-09-15T07:38:16.083Z,83.77
2017-09-15T07:40:43.482Z,83.94
2017-09-15T07:43:10.878Z,83.55
2017-09-15T07:45:38.298Z,83.18
2017-09-15T07:48:05.682Z,82.87
2017-09-15T07:50:33.071Z,82.38
2017-09-15T07:53:00.460Z,82.78
2017-09-15T07:55:28.274Z,83.72
2017-09-15T07:57:55.883Z,83.10
2017-09-15T08:00:23.283Z,83.11
2017-09-15T08:02:50.683Z,83.66
2017-09-15T08:05:18.079Z,83.87
2017-09-15T08:07:45.475Z,83.59
2017-09-15T08:10:12.866Z,82.76
2017-09-15T08:12:40.254Z,82.38
2017-09-15T08:15:07.656Z,83.09
2017-09-15T08:17:35.048Z,82.74
2017-09-15T08:20:02.455Z,83.10
2017-09-15T08:22:29.838Z,83.20
2017-09-15T08:24:57.382Z,83.33
2017-09-15T08:27:24.775Z,83.42
2017-09-15T08:29:52.167Z,83.01
2017-09-15T08:32:19.564Z,83.62
2017-09-15T08:34:46.946Z,84.20
2017-09-15T08:37:14.344Z,83.98
2017-09-15T08:39:41.731Z,84.48
2017-09-15T08:42:23.672Z,85.01
2017-09-15T08:44:51.059Z,85.07
2017-09-15T08:47:18.450Z,84.99
2017-09-15T08:49:45.850Z,84.73
2017-09-15T08:52:13.238Z,82.97
2017-09-15T08:54:40.638Z,82.50
2017-09-15T08:57:08.035Z,82.10
2017-09-15T08:59:35.566Z,81.31
2017-09-15T09:02:02.964Z,79.04
2017-09-15T09:04:30.360Z,79.54
2017-09-15T09:06:57.750Z,80.25
2017-09-15T09:09:25.145Z,80.59
2017-09-15T09:11:52.541Z,80.66
2017-09-15T09:14:19.927Z,81.07
2017-09-15T09:16:47.355Z,80.41
2017-09-15T09:19:14.738Z,79.79
2017-09-15T09:21:42.127Z,79.81
2017-09-15T09:24:09.556Z,78.52
2017-09-15T09:26:36.935Z,77.45
2017-09-15T09:29:04.359Z,77.42
2017-09-15T09:31:31.749Z,77.08
2017-09-15T09:33:59.134Z,78.51
2017-09-15T09:36:26.523Z,72.53
2017-09-15T09:38:53.911Z,72.17
2017-09-15T09:41:21.303Z,72.66
2017-09-15T09:43:48.683Z,69.58
2017-09-15T09:46:16.084Z,71.66
2017-09-15T09:48:43.467Z,69.64
2017-09-15T09:51:10.851Z,67.19
2017-09-15T09:53:38.249Z,69.22
2017-09-15T09:56:05.626Z,71.33
2017-09-15T09:58:33.023Z,74.28
2017-09-15T10:01:00.403Z,75.77
2017-09-15T10:03:27.948Z,77.68
2017-09-15T10:05:55.331Z,79.63
2017-09-15T10:08:22.723Z,79.47
2017-09-15T10:10:50.123Z,80.46
2017-09-15T10:13:17.502Z,81.77
2017-09-15T10:15:44.894Z,80.52
2017-09-15T10:18:12.283Z,75.10
2017-09-15T10:20:39.774Z,77.12
2017-09-15T10:23:07.166Z,77.08
2017-09-15T10:25:34.555Z,75.57
2017-09-15T10:28:01.955Z,77.62
2017-09-15T10:30:29.339Z,78.16
2017-09-15T10:32:56.741Z,80.30
2017-09-15T10:35:24.123Z,82.78
2017-09-15T10:37:51.535Z,83.91
2017-09-15T10:40:18.922Z,83.09
2017-09-15T10:42:46.318Z,85.16
2017-09-15T10:45:13.734Z,84.96
2017-09-15T10:47:41.151Z,84.49
2017-09-15T10:50:08.532Z,83.13
2017-09-15T10:52:35.927Z,82.87
2017-09-15T10:55:03.475Z,83.71
2017-09-15T10:57:36.383Z,81.37
2017-09-15T11:00:09.899Z,83.00
2017-09-15T11:02:37.292Z,83.02
2017-09-15T11:05:04.693Z,80.38
2017-09-15T11:07:32.082Z,77.70
2017-09-15T11:09:59.473Z,77.89
2017-09-15T11:12:26.875Z,75.95
2017-09-15T11:14:54.262Z,74.36
2017-09-15T11:17:22.095Z,75.78
2017-09-15T11:19:49.478Z,74.32
2017-09-15T11:22:16.860Z,76.98
2017-09-15T11:24:44.246Z,76.88
2017-09-15T11:27:11.642Z,77.46
2017-09-15T11:29:39.034Z,76.21
2017-09-15T11:32:06.419Z,77.47
2017-09-15T11:34:33.958Z,78.76
2017-09-15T11:37:01.346Z,81.62
2017-09-15T11:39:28.727Z,78.21
2017-09-15T11:41:56.122Z,78.38
2017-09-15T11:44:23.498Z,78.95
2017-09-15T11:46:50.892Z,78.14
2017-09-15T11:49:18.271Z,77.21
2017-09-15T11:51:45.811Z,77.74
2017-09-15T11:54:13.199Z,75.33
2017-09-15T11:56:40.583Z,70.83
2017-09-15T11:59:07.976Z,68.94
2017-09-15T12:01:35.359Z,71.85
2017-09-15T12:04:02.747Z,71.83
2017-09-15T12:06:30.122Z,74.86
2017-09-15T12:08:57.548Z,75.08
2017-09-15T12:11:24.928Z,77.92
2017-09-15T12:13:52.359Z,79.35
2017-09-15T12:16:19.746Z,78.90
2017-09-15T12:18:47.141Z,79.39
2017-09-15T12:21:14.543Z,78.53
2017-09-15T12:23:41.925Z,78.40
2017-09-15T12:26:09.466Z,79.36
2017-09-15T12:28:36.839Z,78.61
2017-09-15T12:31:04.235Z,75.10
2017-09-15T12:33:31.622Z,77.02
2017-09-15T12:35:59.016Z,75.62
2017-09-15T12:38:26.399Z,72.83
2017-09-15T12:40:53.787Z,74.64
2017-09-15T12:43:21.666Z,73.45
2017-09-15T12:45:49.058Z,73.08
2017-09-15T12:48:16.448Z,72.76
2017-09-15T12:50:43.893Z,73.11
2017-09-15T12:53:11.266Z,76.17
2017-09-15T12:55:38.659Z,75.64
2017-09-15T12:58:06.047Z,74.85
2017-09-15T13:00:33.447Z,74.74
2017-09-15T13:03:00.840Z,72.13
2017-09-15T13:05:28.214Z,71.88
2017-09-15T13:07:55.632Z,73.04
2017-09-15T13:10:23.002Z,73.16
2017-09-15T13:12:50.387Z,74.79
2017-09-15T13:15:17.874Z,77.74
2017-09-15T13:17:45.256Z,78.32
2017-09-15T13:20:12.655Z,79.81
2017-09-15T13:22:40.054Z,80.66
2017-09-15T13:25:07.482Z,80.51
2017-09-15T13:27:34.889Z,81.10
2017-09-15T13:30:02.266Z,81.17
2017-09-15T13:32:29.658Z,80.45
2017-09-15T13:34:57.052Z,78.76
2017-09-15T13:37:24.538Z,78.16
2017-09-15T13:39:51.933Z,79.60
2017-09-15T13:42:19.316Z,79.73
2017-09-15T13:44:46.703Z,77.30
2017-09-15T13:47:14.088Z,72.97
2017-09-15T13:49:41.636Z,74.79
2017-09-15T13:52:09.029Z,75.42
2017-09-15T13:54:36.412Z,71.63
2017-09-15T13:57:03.824Z,73.30
2017-09-15T13:59:31.206Z,73.27
2017-09-15T14:01:58.600Z,72.99
2017-09-15T14:04:25.979Z,75.31
2017-09-15T14:06:54.068Z,75.40
2017-09-15T14:09:21.511Z,70.69
2017-09-15T14:11:48.928Z,73.38
2017-09-15T14:14:16.311Z,70.39
2017-09-15T14:16:43.699Z,68.25
2017-09-15T14:19:11.100Z,67.60
2017-09-15T14:21:38.478Z,63.29
2017-09-15T14:24:05.983Z,64.29
2017-09-15T14:26:33.367Z,65.73
2017-09-15T14:29:00.754Z,66.81
2017-09-15T14:31:28.138Z,65.34
2017-09-15T14:33:55.563Z,65.73
2017-09-15T14:36:23.059Z,65.17
2017-09-15T14:38:50.482Z,63.29
2017-09-15T14:41:17.855Z,65.41
2017-09-15T14:43:45.302Z,63.95
2017-09-15T14:46:12.691Z,60.44
2017-09-15T14:48:40.092Z,60.18
2017-09-15T14:51:07.502Z,62.78
2017-09-15T14:53:35.034Z,61.34
2017-09-15T14:56:02.413Z,62.37
2017-09-15T14:58:29.808Z,62.06
2017-09-15T15:00:57.251Z,63.28
2017-09-15T15:03:24.639Z,61.59
2017-09-15T15:05:52.895Z,65.08
2017-09-15T15:08:20.285Z,64.96
2017-09-15T15:10:47.667Z,66.21
2017-09-15T15:13:15.055Z,65.05
2017-09-15T15:15:42.438Z,65.60
2017-09-15T15:18:09.835Z,64.12
2017-09-15T15:20:37.236Z,63.82
2017-09-15T15:23:05.605Z,63.74
2017-09-15T15:25:32.978Z,64.19
2017-09-15T15:28:00.375Z,66.06
2017-09-15T15:30:27.766Z,64.47
2017-09-15T15:32:55.152Z,66.01
2017-09-15T15:35:22.551Z,66.46
2017-09-15T15:37:49.934Z,66.66
2017-09-15T15:40:17.356Z,67.11
2017-09-15T15:42:44.746Z,65.80
2017-09-15T15:45:12.126Z,65.34
2017-09-15T15:47:39.529Z,66.06
2017-09-15T15:50:06.906Z,65.32
2017-09-15T15:52:34.315Z,64.69
2017-09-15T15:55:01.720Z,65.48
2017-09-15T15:57:29.263Z,64.10
2017-09-15T15:59:56.651Z,63.49
2017-09-15T16:02:24.051Z,63.57
2017-09-15T16:04:51.455Z,64.67
2017-09-15T16:07:18.841Z,64.84
2017-09-15T16:09:46.246Z,64.54
2017-09-15T16:12:13.631Z,65.58
2017-09-15T16:14:41.351Z,64.95
2017-09-15T16:17:08.739Z,65.85
2017-09-15T16:19:36.130Z,65.96
2017-09-15T16:22:04.525Z,66.90
2017-09-15T16:24:31.898Z,67.37
2017-09-15T16:26:59.315Z,68.36
2017-09-15T16:29:26.706Z,69.35
2017-09-15T16:31:54.123Z,70.42
2017-09-15T16:34:22.427Z,70.60
2017-09-15T16:36:51.719Z,70.89
2017-09-15T16:39:24.750Z,70.83
2017-09-15T16:41:57.686Z,72.23
2017-09-15T16:44:30.710Z,72.39
2017-09-15T16:47:03.595Z,70.99
2017-09-15T16:49:30.432Z,71.92
2017-09-15T16:51:57.811Z,71.46
2017-09-15T16:54:25.194Z,71.18
2017-09-15T16:56:57.659Z,71.96
2017-09-15T16:59:25.186Z,71.62
2017-09-15T17:01:52.571Z,72.05
2017-09-15T17:04:19.960Z,71.06
2017-09-15T17:06:47.346Z,70.58
2017-09-15T17:09:14.737Z,70.74
2017-09-15T17:11:42.126Z,70.07
2017-09-15T17:14:09.511Z,70.37
2017-09-15T17:16:36.926Z,70.75
2017-09-15T17:19:04.311Z,70.86
2017-09-15T17:21:31.754Z,71.84
2017-09-15T17:23:59.151Z,72.78
2017-09-15T17:26:26.531Z,73.81
2017-09-15T17:28:54.633Z,74.82
2017-09-15T17:31:22.896Z,76.02
2017-09-15T17:33:50.889Z,76.48
2017-09-15T17:36:18.874Z,77.40
2017-09-15T17:38:46.941Z,77.93
2017-09-15T17:41:14.366Z,78.14
2017-09-15T17:43:41.751Z,78.52
2017-09-15T17:46:09.140Z,78.82
2017-09-15T17:48:36.531Z,79.10
2017-09-15T17:51:04.067Z,79.35
2017-09-15T17:53:31.479Z,79.63
2017-09-15T17:55:58.868Z,79.91
2017-09-15T17:58:26.256Z,80.26
2017-09-15T18:00:53.648Z,80.40
2017-09-15T18:03:21.035Z,80.37
2017-09-15T18:05:48.424Z,80.50
2017-09-15T18:08:15.830Z,80.68
2017-09-15T18:10:43.223Z,80.89
2017-09-15T18:13:10.614Z,81.18
2017-09-15T18:15:38.007Z,81.56
2017-09-15T18:18:05.399Z,81.69
2017-09-15T18:20:32.796Z,82.09
2017-09-15T18:23:00.186Z,82.34
2017-09-15T18:25:27.596Z,82.29
2017-09-15T18:27:55.027Z,82.12
2017-09-15T18:30:22.412Z,82.13
2017-09-15T18:32:49.807Z,82.21
2017-09-15T18:35:17.204Z,81.79
2017-09-15T18:37:44.600Z,80.78
2017-09-15T18:40:11.991Z,80.25
2017-09-15T18:42:39.531Z,79.26
2017-09-15T18:45:06.923Z,80.27
2017-09-15T18:47:34.330Z,81.11
2017-09-15T18:50:01.732Z,81.64
2017-09-15T18:52:29.126Z,82.00
2017-09-15T18:54:56.523Z,82.16
2017-09-15T18:57:23.918Z,82.31
2017-09-15T18:59:51.619Z,82.39
2017-09-15T19:02:19.010Z,82.39
2017-09-15T19:04:46.404Z,82.39
2017-09-15T19:07:13.808Z,82.50
2017-09-15T19:09:41.203Z,82.59
2017-09-15T19:12:08.604Z,82.53
2017-09-15T19:14:35.986Z,82.96
2017-09-15T19:17:03.544Z,83.23
2017-09-15T19:19:30.930Z,83.39
2017-09-15T19:21:58.326Z,83.48
2017-09-15T19:24:25.722Z,83.63
2017-09-15T19:26:53.118Z,83.89
2017-09-15T19:29:20.522Z,84.10
2017-09-15T19:31:47.922Z,84.29
2017-09-15T19:34:15.827Z,84.49
2017-09-15T19:36:43.218Z,84.58
2017-09-15T19:39:10.606Z,84.84
2017-09-15T19:41:38.014Z,84.87
2017-09-15T19:44:05.406Z,85.27
2017-09-15T19:46:32.807Z,85.44
2017-09-15T19:49:00.201Z,85.66
2017-09-15T19:51:27.743Z,85.84
2017-09-15T19:53:55.131Z,86.06
2017-09-15T19:56:22.510Z,86.17
2017-09-15T19:58:49.911Z,86.08
2017-09-15T20:01:17.308Z,85.95
2017-09-15T20:03:44.707Z,85.75
2017-09-15T20:06:12.099Z,85.58
2017-09-15T20:08:39.644Z,85.58
2017-09-15T20:11:07.035Z,85.39
2017-09-15T20:13:34.444Z,85.33
2017-09-15T20:16:01.833Z,85.42
2017-09-15T20:18:29.215Z,85.59
2017-09-15T20:20:56.610Z,85.74
2017-09-15T20:23:24.011Z,85.88
2017-09-15T20:25:51.551Z,85.96
2017-09-15T20:28:18.947Z,86.31
2017-09-15T20:30:46.350Z,86.52
2017-09-15T20:33:13.742Z,86.52
2017-09-15T20:35:41.139Z,86.45
2017-09-15T20:38:08.544Z,86.52
2017-09-15T20:40:35.952Z,86.39
2017-09-15T20:43:03.455Z,86.27
2017-09-15T20:45:30.876Z,86.38
2017-09-15T20:47:58.255Z,85.98
2017-09-15T20:50:25.655Z,86.04
2017-09-15T20:52:53.051Z,86.35
2017-09-15T20:55:20.478Z,86.23
2017-09-15T20:57:47.874Z,86.13
2017-09-15T21:00:15.273Z,86.08
2017-09-15T21:02:42.673Z,86.01
2017-09-15T21:05:10.063Z,86.02
2017-09-15T21:07:37.484Z,86.00
2017-09-15T21:10:04.880Z,86.10
2017-09-15T21:12:32.693Z,85.98
2017-09-15T21:15:00.079Z,85.87
2017-09-15T21:17:27.479Z,85.68
2017-09-15T21:19:54.879Z,85.77
2017-09-15T21:22:22.271Z,85.72
2017-09-15T21:24:49.667Z,85.51
2017-09-15T21:27:17.063Z,85.57
2017-09-15T21:29:44.478Z,85.59
2017-09-15T21:32:11.875Z,85.67
2017-09-15T21:34:39.266Z,85.82
2017-09-15T21:37:06.663Z,85.96
2017-09-15T21:39:34.073Z,86.18
2017-09-15T21:42:01.471Z,86.05
2017-09-15T21:44:28.864Z,85.99
2017-09-15T21:46:56.575Z,86.14
2017-09-15T21:49:23.978Z,86.30
2017-09-15T21:51:51.372Z,86.30
2017-09-15T21:54:18.787Z,86.29
2017-09-15T21:56:46.184Z,86.24
2017-09-15T21:59:13.583Z,86.19
2017-09-15T22:01:40.983Z,86.15
2017-09-15T22:04:13.907Z,86.20
2017-09-15T22:06:41.301Z,86.09
2017-09-15T22:09:08.727Z,86.02
2017-09-15T22:11:36.123Z,85.95
2017-09-15T22:14:03.518Z,85.93
2017-09-15T22:16:30.922Z,86.00
2017-09-15T22:18:58.320Z,86.12
2017-09-15T22:21:25.716Z,86.38
2017-09-15T22:23:53.106Z,86.55
2017-09-15T22:26:20.611Z,86.70
2017-09-15T22:28:48.003Z,86.89
2017-09-15T22:31:15.390Z,87.01
2017-09-15T22:33:42.794Z,87.21
2017-09-15T22:36:10.187Z,87.39
2017-09-15T22:38:37.620Z,87.44
2017-09-15T22:41:04.983Z,87.58
2017-09-15T22:43:32.398Z,87.72
2017-09-15T22:45:59.801Z,87.74
2017-09-15T22:48:27.191Z,87.92
2017-09-15T22:50:54.590Z,88.11
2017-09-15T22:53:22.000Z,88.28
2017-09-15T22:55:49.392Z,88.48
2017-09-15T22:58:16.780Z,88.46
2017-09-15T23:00:44.198Z,88.59
2017-09-15T23:03:11.599Z,88.51
2017-09-15T23:05:38.987Z,88.52
2017-09-15T23:08:06.391Z,88.60
2017-09-15T23:10:33.791Z,88.70
2017-09-15T23:13:01.195Z,88.83
2017-09-15T23:15:28.590Z,88.84
2017-09-15T23:17:56.000Z,88.68
2017-09-15T23:20:23.397Z,88.70
2017-09-15T23:22:50.786Z,88.81
2017-09-15T23:25:18.187Z,88.92
2017-09-15T23:27:45.583Z,89.15
2017-09-15T23:30:12.991Z,89.11
2017-09-15T23:32:40.386Z,89.14
2017-09-15T23:35:07.784Z,89.05
2017-09-15T23:37:35.183Z,89.04
2017-09-15T23:40:02.569Z,89.24
2017-09-15T23:42:29.967Z,89.29
2017-09-15T23:45:14.609Z,89.39
2017-09-15T23:47:42.011Z,89.38
2017-09-15T23:50:09.417Z,89.42
2017-09-15T23:52:36.807Z,89.48
2017-09-15T23:55:04.209Z,89.54
2017-09-15T23:57:31.602Z,89.44
2017-09-15T23:59:59.002Z,89.47
